Daleville, Mississippi
Current Conditions -  °F | °C
As of 10:56 AM on Friday 24 Oct 2014 (Local Time) from KNMM Reporting Station
Few Clouds Few Clouds  
Wind Chill: 67°   Ceiling: Unl
Heat Index: 67°   Visibility: 10mi
Dew Point: 47°   Wind: 3mph
Humidity: 49%   Direction: NA
Pressure: 30.13"   Gusts: NA
Location:  32.57°N, 88.68°W
Report Text: KNMM 241556Z VRB03KT 10SM FEW210 19/08 A3013 RMK AO2 SLP214 T01940083 $
Loading
Personal Weather Stations






























Interactive Weather Map
Tropical Storm Tracking
New forecast layout! Learn more

10-Day Weather Forecast

Advertisements
Track Severe Weather on mobile